Date,TemperatureHighF,TemperatureAvgF,TemperatureLowF,DewpointHighF,DewpointAvgF,DewpointLowF,HumidityHigh,HumidityAvg,HumidityLow,PressureMaxIn,PressureMinIn,WindSpeedMaxMPH,WindSpeedAvgMPH,GustSpeedMaxMPH,PrecipitationSumIn
2012-12-1,60.8,48.5,40.3,37.5,32.7,28.5,73,56,31,29.76,29.68,11,3,11,0.00
2012-12-2,58.1,44.4,33.5,40.5,31.9,25.5,74,62,43,29.72,29.30,22,3,25,0.00
2012-12-3,50.4,43.6,39.2,28.5,20.2,17.7,57,40,31,30.08,29.69,24,7,24,0.00
2012-12-4,46.8,37.8,27.4,27.2,21.1,13.7,63,51,42,30.10,29.84,10,1,10,0.00
2012-12-5,62.5,44.8,33.1,37.7,26.3,17.3,71,50,32,30.00,29.67,20,4,20,0.00
2012-12-6,44.5,37.2,32.9,28.3,24.5,20.4,81,61,43,30.00,29.87,6,1,6,0.00
2012-12-7,40.1,32.7,28.1,28.2,23.8,19.5,84,71,46,29.88,29.60,17,4,17,0.01
2012-12-8,36.5,25.5,14.4,23.8,15.1,7.5,77,65,49,30.20,29.56,22,6,22,0.00
2012-12-9,24.8,18.3,9.9,13.2,9.1,3.2,75,67,59,30.27,29.85,15,4,15,0.00
2012-12-10,37.1,29.8,23.8,22.5,17.4,11.9,69,60,49,29.90,29.80,17,5,17,0.00
2012-12-11,40.7,32.5,23.6,22.6,19.4,15.4,76,60,46,29.87,29.52,16,7,16,0.00
2012-12-12,40.0,37.1,34.4,31.9,25.5,21.2,83,63,50,29.74,29.53,10,2,10,0.02
2012-12-13,41.4,32.2,23.8,31.1,24.9,18.5,85,75,63,29.86,29.74,8,1,8,0.00
2012-12-14,39.4,29.5,18.5,30.6,23.0,13.9,84,77,68,29.74,29.59,7,1,7,0.01
2012-12-15,40.0,33.0,21.8,30.5,25.7,16.6,84,75,59,29.78,29.63,6,1,6,0.00
2012-12-16,40.0,26.3,18.0,25.2,17.5,12.8,84,70,49,29.70,29.59,19,3,19,0.00
2012-12-17,40.9,29.9,18.4,31.2,20.4,10.9,77,68,52,29.61,29.35,22,4,22,0.00
2012-12-18,36.2,30.8,20.2,20.3,8.3,4.0,53,39,29,29.82,29.53,23,10,23,0.00
2012-12-19,33.3,22.2,15.8,9.2,4.4,1.5,60,47,28,30.00,29.82,21,4,21,0.00
2012-12-20,44.5,33.2,16.7,10.8,7.0,1.5,51,34,24,30.00,29.91,17,6,17,0.00
2012-12-21,47.2,33.5,23.6,15.3,10.4,7.4,52,39,25,29.95,29.87,11,1,11,0.00
2012-12-22,25.9,17.6,15.1,12.8,10.4,6.6,81,74,47,30.02,29.83,8,2,8,0.00
2012-12-23,29.0,19.3,14.2,18.7,11.9,8.0,78,73,64,29.96,29.83,7,1,7,0.00
2012-12-24,14.2,10.3,6.8,8.1,3.7,0.5,78,74,66,30.25,29.84,10,3,10,0.00
2012-12-25,13.9,5.9,0.7,5.2,-1.0,-6.0,76,73,67,30.26,29.96,4,0,4,0.00
2012-12-26,18.5,9.6,0.2,9.0,2.5,-6.2,77,73,65,29.96,29.76,3,0,3,0.00
2012-12-27,23.0,15.0,8.3,15.9,7.9,2.0,79,74,65,29.90,29.81,11,1,11,0.00
2012-12-28,33.3,25.3,20.3,22.1,16.6,11.9,76,69,61,30.02,29.88,14,6,14,0.00
2012-12-29,32.4,23.0,13.1,17.6,12.0,6.1,75,63,51,30.03,29.90,13,3,13,0.00
2012-12-30,33.8,24.2,15.8,23.8,13.7,6.8,69,64,59,30.03,29.92,10,3,10,0.00
2012-12-31,28.4,19.8,11.2,15.1,9.8,3.4,74,65,55,30.04,29.97,11,4,11,0.00